Terminal Aerodrome Forecast
Issued by NWS Blacksburg, VA

Current Version | Previous Version | Graphics & Text | Print | Product List | Glossary Off
Versions: 1 2 3 4 5 6 7 8 9 10 11 12 13 14 15 16 17 18 19 20 21 22 23 24 25 26 27 28 29 30 31 32 33 34 35 36 37 38 39 40 41 42 43 44

740
FTUS41 KRNK 281825 AAA
TAFBLF
TAF AMD
KBLF 281825Z 2818/2918 21010G20KT P6SM BKN045
     FM290000 21004KT P6SM BKN050
     FM290900 13004KT 4SM BR OVC020
     FM291400 13006KT P6SM OVC012=

USA.gov is the U.S. government's official web portal to all federal, state and local government web resources and services.